Time;durP1;ratioP1;P1;durP2;ratioP2;P2;SDS_P1;SDS_P2;PMS_P1;PMS_P2;Temp;Humidity;BMP_temperature;BMP_pressure;BME280_temperature;BME280_humidity;BME280_pressure;Samples;Min_cycle;Max_cycle;Signal;HPM_P1;HPM_P2
2021/12/20 00:02:59;;;;;;;;;12.25;12.25;;;;;6.20;87.95;99504.88;5040750;28;12344;-75
2021/12/20 00:05:54;;;;;;;;;14.00;14.00;;;;;6.18;87.87;99501.66;5038326;28;11638;-75
2021/12/20 00:08:50;;;;;;;;;17.25;17.25;;;;;6.26;87.95;99506.28;5034373;28;11633;-75
2021/12/20 00:11:48;;;;;;;;;19.00;17.00;;;;;6.22;87.79;99508.09;5034190;28;11672;-75
2021/12/20 00:14:36;;;;;;;;;17.25;17.25;;;;;6.23;88.10;99515.19;5035010;28;11623;-75
2021/12/20 00:17:32;;;;;;;;;15.75;15.75;;;;;6.36;87.05;99516.91;5041246;28;11536;-75
2021/12/20 00:20:27;;;;;;;;;19.25;18.25;;;;;6.15;87.66;99516.06;5054159;28;11546;-74
2021/12/20 00:23:23;;;;;;;;;16.25;16.25;;;;;6.18;87.97;99520.06;5054121;28;11525;-75
2021/12/20 00:26:18;;;;;;;;;17.00;17.00;;;;;6.28;87.53;99517.75;5025752;28;11575;-75
2021/12/20 00:29:14;;;;;;;;;18.25;18.25;;;;;6.23;87.66;99512.47;5032776;28;11533;-74
2021/12/20 00:32:10;;;;;;;;;16.00;16.00;;;;;6.23;87.71;99511.66;5032983;28;11522;-75
2021/12/20 00:35:06;;;;;;;;;18.00;17.00;;;;;6.20;86.92;99515.84;5035640;28;11537;-74
2021/12/20 00:41:16;;;;;;;;;18.25;18.25;;;;;6.22;87.07;99510.06;5053671;28;12265;-75
2021/12/20 00:44:12;;;;;;;;;17.00;16.50;;;;;6.24;87.09;99513.25;5053157;28;11524;-74
2021/12/20 00:47:08;;;;;;;;;15.75;14.75;;;;;6.27;87.32;99510.66;5052808;28;11593;-74
2021/12/20 00:50:05;;;;;;;;;19.50;16.00;;;;;6.22;86.78;99504.56;5053605;28;11677;-74
2021/12/20 00:53:01;;;;;;;;;13.75;13.00;;;;;6.08;86.92;99491.84;5029996;28;11557;-75
2021/12/20 00:55:57;;;;;;;;;12.25;12.25;;;;;6.07;87.60;99494.94;5033811;28;11506;-75
2021/12/20 00:58:52;;;;;;;;;18.00;18.00;;;;;6.22;86.99;99502.63;5041396;28;11493;-74
2021/12/20 01:01:48;;;;;;;;;20.00;17.75;;;;;6.34;86.98;99502.69;5055113;28;11524;-74
2021/12/20 01:04:44;;;;;;;;;7.75;7.75;;;;;6.28;86.94;99500.47;5034651;28;11548;-74
2021/12/20 01:07:40;;;;;;;;;17.00;17.00;;;;;6.30;86.82;99499.03;5050904;28;11613;-73
2021/12/20 01:10:44;;;;;;;;;14.75;14.75;;;;;6.44;86.16;99497.97;5036407;28;11527;-73
2021/12/20 01:13:41;;;;;;;;;15.75;15.75;;;;;6.41;85.88;99508.47;5053010;28;11535;-74
2021/12/20 01:16:36;;;;;;;;;21.50;21.50;;;;;6.37;85.76;99512.22;5039845;28;12323;-75
2021/12/20 01:19:36;;;;;;;;;14.00;14.00;;;;;6.32;85.14;99509.66;5025565;28;11563;-74
2021/12/20 01:22:32;;;;;;;;;14.00;14.00;;;;;6.42;85.16;99509.28;5024693;28;11668;-74
2021/12/20 01:25:28;;;;;;;;;16.50;15.25;;;;;6.31;84.93;99521.78;5026484;28;11525;-74
2021/12/20 01:28:23;;;;;;;;;12.00;12.00;;;;;6.09;85.41;99509.13;5052749;28;11512;-75
2021/12/20 01:31:19;;;;;;;;;14.75;14.75;;;;;6.31;84.61;99522.59;5052550;28;11543;-74
2021/12/20 01:34:14;;;;;;;;;13.50;13.50;;;;;6.32;85.09;99523.41;5039165;28;11506;-74
2021/12/20 01:37:10;;;;;;;;;17.00;17.00;;;;;6.35;84.76;99519.97;5014039;28;11471;-74
2021/12/20 01:40:09;;;;;;;;;11.25;11.25;;;;;6.39;84.01;99520.94;5001052;28;11621;-76
2021/12/20 01:43:06;;;;;;;;;19.00;18.00;;;;;6.32;84.38;99523.41;5012040;28;11507;-74
2021/12/20 01:46:04;;;;;;;;;15.75;15.75;;;;;6.36;83.84;99516.91;5025904;28;11526;-74
2021/12/20 01:49:02;;;;;;;;;12.50;12.50;;;;;6.31;83.97;99519.03;5031681;28;11538;-75
2021/12/20 01:54:53;;;;;;;;;10.50;9.25;;;;;6.38;81.79;99533.06;5033290;28;11517;-74
2021/12/20 01:57:49;;;;;;;;;13.00;12.75;;;;;6.28;82.13;99520.50;5038886;28;11673;-74
2021/12/20 02:01:28;;;;;;;;;9.50;9.50;;;;;6.39;81.54;99521.75;5038873;28;12312;-74
2021/12/20 02:04:07;;;;;;;;;12.00;12.00;;;;;6.33;81.17;99520.31;5036774;28;11504;-74
2021/12/20 02:07:03;;;;;;;;;10.00;9.00;;;;;6.39;81.46;99523.69;5047055;28;11522;-75
2021/12/20 02:09:46;;;;;;;;;10.00;10.00;;;;;6.42;81.94;99520.25;5052988;28;11496;-74
2021/12/20 02:12:41;;;;;;;;;13.25;11.25;;;;;6.36;81.78;99532.56;5040233;28;12266;-74
2021/12/20 02:15:37;;;;;;;;;10.25;10.00;;;;;6.30;81.47;99528.41;5052794;28;11643;-74
2021/12/20 02:18:33;;;;;;;;;12.25;12.25;;;;;6.44;81.08;99529.00;5044155;28;11569;-74
2021/12/20 02:21:30;;;;;;;;;10.00;10.00;;;;;6.45;80.69;99533.34;5026243;28;11512;-74
2021/12/20 02:24:26;;;;;;;;;9.00;9.00;;;;;6.44;81.12;99529.00;5032321;28;11492;-74
2021/12/20 02:27:23;;;;;;;;;16.00;13.25;;;;;6.36;81.77;99530.66;5032242;28;11510;-74
2021/12/20 02:36:54;;;;;;;;;8.50;8.50;;;;;6.34;81.84;99530.16;5033486;28;11546;-74
2021/12/20 02:39:59;;;;;;;;;13.50;13.50;;;;;6.31;82.43;99533.56;5051696;28;11549;-74
2021/12/20 02:42:54;;;;;;;;;15.00;13.25;;;;;6.24;82.24;99543.47;5043822;28;11542;-75
2021/12/20 02:45:54;;;;;;;;;11.00;11.00;;;;;6.30;82.10;99539.41;5020108;28;12314;-75
2021/12/20 02:48:50;;;;;;;;;12.00;12.00;;;;;6.24;82.11;99554.44;5032118;28;11513;-74
2021/12/20 02:51:47;;;;;;;;;10.25;10.25;;;;;6.29;82.00;99552.31;5031848;28;11530;-74
2021/12/20 02:54:42;;;;;;;;;13.25;13.25;;;;;6.27;81.87;99559.25;5043518;28;11502;-74
2021/12/20 02:57:39;;;;;;;;;12.00;12.00;;;;;6.25;81.70;99558.78;5011098;28;12348;-75
2021/12/20 03:00:34;;;;;;;;;17.00;12.00;;;;;6.32;81.20;99557.16;5000285;28;11518;-74
2021/12/20 03:03:32;;;;;;;;;11.75;11.75;;;;;6.21;81.61;99558.66;5025338;28;11521;-74
2021/12/20 03:06:48;;;;;;;;;9.00;9.00;;;;;6.18;81.51;99566.72;5050137;28;11492;-76
2021/12/20 03:09:50;;;;;;;;;13.00;13.00;;;;;6.21;81.50;99561.41;5053662;28;11568;-75
2021/12/20 03:12:48;;;;;;;;;8.50;8.50;;;;;6.13;81.43;99570.44;5055338;28;11518;-74
2021/12/20 03:15:44;;;;;;;;;11.25;11.25;;;;;6.26;80.73;99569.44;5041846;28;11475;-75
2021/12/20 03:18:39;;;;;;;;;12.75;10.50;;;;;6.21;80.66;99582.53;5042106;28;11486;-75
2021/12/20 03:21:35;;;;;;;;;8.75;8.50;;;;;6.16;79.98;99580.78;5049909;28;12241;-74
2021/12/20 03:24:32;;;;;;;;;8.00;8.00;;;;;6.07;79.73;99583.56;5038653;28;11501;-74
2021/12/20 03:27:27;;;;;;;;;5.25;5.25;;;;;6.01;79.96;99575.84;5034620;28;11503;-74
2021/12/20 03:30:25;;;;;;;;;6.00;6.00;;;;;5.98;80.04;99582.78;5034980;28;11485;-74
2021/12/20 03:33:20;;;;;;;;;8.25;8.25;;;;;5.88;79.72;99569.38;5021849;28;11479;-74
2021/12/20 03:36:17;;;;;;;;;6.50;6.50;;;;;5.91;79.98;99578.94;5038308;28;11525;-74
2021/12/20 03:39:13;;;;;;;;;6.50;6.00;;;;;6.01;79.95;99573.91;5060018;28;11543;-74
2021/12/20 03:42:09;;;;;;;;;6.00;6.00;;;;;5.90;80.01;99589.06;5033864;28;11559;-75
2021/12/20 03:45:04;;;;;;;;;10.00;10.00;;;;;5.96;79.73;99596.00;5045836;28;11462;-74
2021/12/20 03:48:00;;;;;;;;;8.50;8.25;;;;;5.90;79.96;99602.78;5034879;28;12447;-75
2021/12/20 03:50:57;;;;;;;;;9.00;9.00;;;;;5.86;80.38;99612.81;5035597;28;11491;-75
2021/12/20 03:53:52;;;;;;;;;6.00;6.00;;;;;5.89;79.67;99609.41;5034878;28;11483;-75
2021/12/20 03:56:48;;;;;;;;;7.50;7.50;;;;;5.82;79.82;99620.06;5037404;28;11501;-75
2021/12/20 03:59:47;;;;;;;;;8.75;8.75;;;;;5.77;79.72;99626.53;5035197;28;12259;-75
2021/12/20 04:02:45;;;;;;;;;10.00;10.00;;;;;5.73;80.26;99627.50;5035383;28;11597;-75
2021/12/20 04:05:42;;;;;;;;;7.50;7.50;;;;;5.90;79.99;99621.16;5036478;28;11539;-75
2021/12/20 04:08:39;;;;;;;;;15.00;12.75;;;;;5.74;79.65;99623.63;5034783;28;11491;-77
2021/12/20 04:11:35;;;;;;;;;8.00;8.00;;;;;5.59;80.46;99619.44;5030466;28;11554;-77
2021/12/20 04:14:31;;;;;;;;;11.50;11.50;;;;;5.64;80.23;99626.69;5016040;28;11521;-77
2021/12/20 04:17:27;;;;;;;;;6.50;6.50;;;;;5.61;79.81;99630.09;5048753;28;11486;-77
2021/12/20 04:20:22;;;;;;;;;8.25;8.25;;;;;5.61;79.77;99630.91;5026794;28;12319;-76
2021/12/20 04:23:18;;;;;;;;;8.25;8.25;;;;;5.48;80.05;99637.34;5033834;28;11622;-76
2021/12/20 04:26:14;;;;;;;;;6.50;6.50;;;;;5.47;79.74;99641.22;5033425;28;11472;-76
2021/12/20 04:29:10;;;;;;;;;8.25;8.25;;;;;5.45;79.68;99647.03;5033848;28;11508;-77
2021/12/20 04:32:06;;;;;;;;;4.75;4.75;;;;;5.34;79.89;99647.66;5033589;28;11483;-76
2021/12/20 04:35:01;;;;;;;;;5.25;5.25;;;;;5.38;79.53;99654.94;5045286;28;12430;-76
2021/12/20 04:37:59;;;;;;;;;16.75;15.50;;;;;5.36;79.52;99657.16;5035210;28;11611;-77
2021/12/20 04:40:54;;;;;;;;;29.75;29.75;;;;;5.28;79.67;99666.19;5045271;28;11661;-77
2021/12/20 04:43:50;;;;;;;;;8.75;8.75;;;;;5.33;79.49;99670.72;5033852;28;11551;-76
2021/12/20 04:46:46;;;;;;;;;12.50;12.50;;;;;5.40;79.36;99666.38;5045233;28;11512;-76
2021/12/20 04:49:44;;;;;;;;;19.50;19.50;;;;;5.41;79.47;99675.41;5033563;28;12260;-77
2021/12/20 04:52:41;;;;;;;;;9.50;9.50;;;;;5.39;79.33;99685.91;5045259;28;11531;-76
2021/12/20 04:55:37;;;;;;;;;17.00;17.00;;;;;5.05;79.90;99678.41;5019903;28;11546;-76
2021/12/20 04:58:33;;;;;;;;;12.25;12.00;;;;;5.29;79.30;99690.56;5018802;28;12316;-77
2021/12/20 05:01:28;;;;;;;;;12.00;12.00;;;;;5.24;79.32;99684.41;5034443;28;11605;-77
2021/12/20 05:04:24;;;;;;;;;14.75;14.75;;;;;5.10;80.07;99689.22;5033926;28;11497;-78
2021/12/20 05:07:22;;;;;;;;;15.00;15.00;;;;;5.09;80.26;99682.94;5044606;28;11577;-77
2021/12/20 05:10:31;;;;;;;;;12.50;12.50;;;;;5.13;79.99;99685.84;5044758;28;11541;-76
2021/12/20 05:13:27;;;;;;;;;14.25;12.00;;;;;5.11;79.76;99688.91;5032955;28;11574;-77
2021/12/20 05:16:22;;;;;;;;;11.50;11.50;;;;;5.09;79.15;99682.94;5032585;28;11519;-76
2021/12/20 05:19:18;;;;;;;;;17.75;16.25;;;;;5.03;79.42;99686.94;5034213;28;11504;-76
2021/12/20 05:22:14;;;;;;;;;11.75;11.75;;;;;5.07;79.10;99690.69;5038315;28;12688;-76
2021/12/20 05:25:10;;;;;;;;;11.00;11.00;;;;;5.01;79.05;99700.16;5033004;28;12340;-78
2021/12/20 05:27:58;;;;;;;;;15.50;15.50;;;;;5.09;78.64;99702.13;5032882;28;11512;-77
2021/12/20 05:30:54;;;;;;;;;12.00;12.00;;;;;5.03;78.61;99698.72;5043683;28;11554;-77
2021/12/20 05:33:50;;;;;;;;;12.00;11.75;;;;;4.90;79.66;99701.56;5032419;28;11512;-77
2021/12/20 05:36:45;;;;;;;;;12.25;12.00;;;;;4.82;80.25;99688.66;5019465;28;11509;-77
2021/12/20 05:39:41;;;;;;;;;12.00;12.00;;;;;4.84;80.17;99694.63;5019390;28;11607;-77
2021/12/20 05:42:37;;;;;;;;;15.75;14.50;;;;;4.88;80.06;99701.09;5018987;28;11641;-77
2021/12/20 05:45:32;;;;;;;;;11.25;11.25;;;;;4.97;79.30;99704.66;5032288;28;11598;-76
2021/12/20 05:48:30;;;;;;;;;16.00;14.50;;;;;4.98;79.52;99701.63;5032343;28;11509;-76
2021/12/20 05:51:26;;;;;;;;;11.75;11.75;;;;;4.95;79.76;99715.94;5032274;28;11762;-76
2021/12/20 05:54:22;;;;;;;;;14.50;14.50;;;;;5.07;79.51;99709.06;5032426;28;11514;-76
2021/12/20 05:57:17;;;;;;;;;11.75;11.75;;;;;5.00;79.29;99720.47;5020236;28;11551;-76
2021/12/20 06:00:17;;;;;;;;;14.00;11.75;;;;;5.11;78.87;99727.28;5031708;28;11489;-76
2021/12/20 06:03:13;;;;;;;;;12.75;12.25;;;;;5.03;79.32;99736.28;5001003;28;11546;-77
2021/12/20 06:06:09;;;;;;;;;9.50;8.50;;;;;5.06;79.36;99732.06;5019549;28;11544;-77
2021/12/20 06:09:04;;;;;;;;;13.25;13.25;;;;;5.12;79.11;99741.78;5012383;28;11527;-76
2021/12/20 06:12:00;;;;;;;;;9.75;9.75;;;;;5.16;78.55;99746.31;5017736;28;11505;-75
2021/12/20 06:14:55;;;;;;;;;5.00;5.00;;;;;5.19;78.53;99742.13;5013765;28;11566;-76
2021/12/20 06:17:51;;;;;;;;;8.25;8.25;;;;;5.27;78.17;99747.63;5019253;28;11652;-76
2021/12/20 06:20:46;;;;;;;;;10.25;10.25;;;;;5.16;78.80;99742.78;5032097;28;11544;-76
2021/12/20 06:23:42;;;;;;;;;9.25;9.25;;;;;5.15;78.18;99741.97;5043933;28;11504;-76
2021/12/20 06:26:37;;;;;;;;;14.75;14.75;;;;;5.34;77.90;99736.19;5033301;28;12332;-75
2021/12/20 06:29:33;;;;;;;;;8.50;8.50;;;;;5.23;77.85;99737.63;5041433;28;11521;-77
2021/12/20 06:32:29;;;;;;;;;10.00;10.00;;;;;5.21;77.91;99743.44;5032124;28;11507;-76
2021/12/20 06:35:25;;;;;;;;;12.50;12.50;;;;;5.08;78.49;99738.06;5031834;28;11473;-77
2021/12/20 06:38:22;;;;;;;;;16.00;16.00;;;;;5.09;78.27;99742.44;5031184;28;12412;-77
2021/12/20 06:41:18;;;;;;;;;14.50;14.50;;;;;5.21;78.39;99734.38;5033810;28;11626;-77
2021/12/20 06:43:46;;;;;;;;;12.25;12.25;;;;;5.21;77.34;99740.69;5047826;28;11574;-77
2021/12/20 06:46:15;;;;;;;;;10.25;10.25;;;;;5.20;77.31;99741.81;5016645;28;11518;-76
2021/12/20 06:49:12;;;;;;;;;10.25;10.25;;;;;5.00;77.46;99753.34;5034165;28;11491;-77
2021/12/20 06:52:08;;;;;;;;;12.25;12.25;;;;;5.03;77.57;99749.97;5023810;28;12295;-77
2021/12/20 06:55:04;;;;;;;;;10.00;10.00;;;;;5.03;77.58;99758.19;5036084;28;11627;-77
2021/12/20 06:58:00;;;;;;;;;13.25;13.25;;;;;5.10;77.32;99744.84;5035675;28;12286;-76
2021/12/20 07:00:56;;;;;;;;;12.00;12.00;;;;;5.19;76.38;99759.38;5047183;28;11544;-77
2021/12/20 07:03:51;;;;;;;;;11.00;10.00;;;;;5.29;76.08;99752.78;5035668;28;11521;-77
2021/12/20 07:06:47;;;;;;;;;14.25;14.25;;;;;5.28;76.67;99759.41;5035364;28;11516;-77
2021/12/20 07:09:43;;;;;;;;;12.25;12.25;;;;;5.48;76.63;99758.81;5035314;28;12313;-77
2021/12/20 07:12:38;;;;;;;;;13.00;13.00;;;;;5.70;77.00;99768.06;5035391;28;11645;-78
2021/12/20 07:15:34;;;;;;;;;10.00;10.00;;;;;6.07;76.17;99764.72;5034827;28;11524;-78
2021/12/20 07:18:30;;;;;;;;;8.50;8.50;;;;;5.99;75.54;99775.72;5004579;28;11701;-78
2021/12/20 07:21:26;;;;;;;;;11.00;10.50;;;;;6.24;75.44;99785.88;5035028;28;11597;-77
2021/12/20 07:24:21;;;;;;;;;9.00;7.50;;;;;6.14;74.29;99791.69;5035225;28;11612;-77
2021/12/20 07:27:20;;;;;;;;;16.00;13.75;;;;;6.10;75.19;99793.47;5035028;28;11587;-77
2021/12/20 07:30:17;;;;;;;;;16.00;13.75;;;;;6.08;74.23;99791.03;5036528;28;11616;-77
2021/12/20 07:33:14;;;;;;;;;10.75;10.75;;;;;6.18;74.75;99800.88;5022256;28;11508;-77
2021/12/20 07:36:14;;;;;;;;;8.50;7.75;;;;;6.21;73.41;99802.16;5021767;28;11501;-78
2021/12/20 07:39:10;;;;;;;;;8.00;8.00;;;;;6.04;73.85;99808.47;5023590;28;11681;-78
2021/12/20 07:42:07;;;;;;;;;12.00;10.00;;;;;5.86;74.73;99813.13;5033826;28;11570;-78
2021/12/20 07:45:02;;;;;;;;;12.75;12.75;;;;;5.75;74.69;99818.09;5023064;28;11566;-77
2021/12/20 07:48:02;;;;;;;;;10.00;9.00;;;;;5.87;75.08;99814.72;5022224;28;11577;-78
2021/12/20 07:50:59;;;;;;;;;10.00;10.00;;;;;5.78;74.96;99814.72;5034722;28;11578;-79
2021/12/20 07:53:55;;;;;;;;;12.00;11.50;;;;;5.88;75.41;99815.53;5033221;28;11515;-77
2021/12/20 07:56:50;;;;;;;;;8.75;8.75;;;;;5.79;74.85;99815.50;5037105;28;11502;-78
2021/12/20 07:59:46;;;;;;;;;8.25;7.50;;;;;5.85;75.45;99812.31;5034955;28;11524;-77
2021/12/20 08:02:42;;;;;;;;;8.25;8.25;;;;;5.89;75.48;99815.19;5034015;28;12304;-79
2021/12/20 08:05:37;;;;;;;;;9.25;9.00;;;;;5.94;74.53;99803.31;5026912;28;11533;-78
2021/12/20 08:08:36;;;;;;;;;13.25;13.25;;;;;5.95;74.68;99805.72;5026713;28;11477;-77
2021/12/20 08:11:33;;;;;;;;;9.25;9.25;;;;;6.04;73.67;99820.25;5044217;28;11522;-78
2021/12/20 08:14:33;;;;;;;;;8.75;8.00;;;;;6.08;73.99;99836.91;5034510;28;11489;-77
2021/12/20 08:17:28;;;;;;;;;13.00;13.00;;;;;6.10;73.59;99837.38;5044772;28;12162;-77
2021/12/20 08:20:25;;;;;;;;;8.75;8.75;;;;;6.01;73.62;99826.41;5033833;28;11534;-78
2021/12/20 08:23:20;;;;;;;;;10.75;10.75;;;;;6.13;74.09;99823.00;5035650;28;11487;-77
2021/12/20 08:26:17;;;;;;;;;4.00;4.00;;;;;6.02;74.38;99829.94;5024563;28;11529;-77
2021/12/20 08:29:12;;;;;;;;;8.50;8.50;;;;;6.08;73.83;99831.41;5013923;28;11515;-79
2021/12/20 08:32:08;;;;;;;;;11.75;11.00;;;;;6.02;73.70;99827.22;5025274;28;11438;-77
2021/12/20 08:35:05;;;;;;;;;5.00;4.00;;;;;6.01;74.30;99831.09;5033838;28;11553;-76
2021/12/20 08:38:01;;;;;;;;;11.00;11.00;;;;;5.95;72.84;99829.63;5020333;28;12233;-78
2021/12/20 08:40:57;;;;;;;;;12.50;12.50;;;;;6.12;73.15;99826.88;5022643;28;11527;-77
2021/12/20 08:43:56;;;;;;;;;12.00;12.00;;;;;6.02;73.99;99821.72;5014227;28;11499;-77
2021/12/20 08:46:53;;;;;;;;;10.00;9.25;;;;;6.19;72.65;99824.47;5034727;28;11545;-77
2021/12/20 08:49:49;;;;;;;;;36.50;35.00;;;;;6.07;72.67;99819.63;5034662;28;11514;-77
2021/12/20 08:52:45;;;;;;;;;15.25;15.25;;;;;6.15;72.79;99826.25;5035843;28;12246;-77
2021/12/20 08:55:44;;;;;;;;;12.75;12.75;;;;;6.20;71.83;99828.81;5022871;28;11626;-77
2021/12/20 08:58:40;;;;;;;;;13.25;13.25;;;;;6.08;72.60;99829.47;5022843;28;11557;-77
2021/12/20 09:01:35;;;;;;;;;10.25;10.25;;;;;6.27;72.25;99820.91;5036326;28;11517;-77
2021/12/20 09:04:31;;;;;;;;;16.50;15.75;;;;;6.22;72.01;99826.59;5033917;28;11584;-77
2021/12/20 09:07:30;;;;;;;;;10.00;10.00;;;;;6.25;71.37;99828.66;5022819;28;11531;-77
2021/12/20 09:10:28;;;;;;;;;11.00;11.00;;;;;6.31;70.99;99830.13;5034348;28;11560;-76
2021/12/20 09:13:23;;;;;;;;;15.25;15.25;;;;;6.16;71.40;99829.81;5028900;28;11421;-77
2021/12/20 09:16:19;;;;;;;;;10.75;10.75;;;;;6.23;73.19;99827.38;5033449;28;11537;-77
2021/12/20 09:19:14;;;;;;;;;9.00;9.00;;;;;6.23;71.96;99824.66;5033592;28;11527;-77
2021/12/20 09:22:11;;;;;;;;;12.50;12.00;;;;;6.12;72.82;99822.19;5033193;28;11488;-77
2021/12/20 09:25:07;;;;;;;;;17.25;17.25;;;;;6.23;72.17;99825.44;5021254;28;11524;-76
2021/12/20 09:28:08;;;;;;;;;20.00;18.25;;;;;6.21;71.77;99821.38;5021282;28;11519;-77
2021/12/20 09:31:05;;;;;;;;;13.00;13.00;;;;;6.21;72.34;99816.72;5020164;28;12401;-77
2021/12/20 09:34:01;;;;;;;;;17.25;17.25;;;;;6.19;73.06;99821.72;5032870;28;11528;-78
2021/12/20 09:36:56;;;;;;;;;17.00;17.00;;;;;6.16;73.50;99811.41;5033400;28;11536;-77
2021/12/20 09:39:54;;;;;;;;;14.75;14.75;;;;;6.28;73.47;99816.22;5033141;28;11537;-76
2021/12/20 09:42:53;;;;;;;;;14.00;13.50;;;;;6.24;73.91;99809.78;5033082;28;11543;-77
2021/12/20 09:45:49;;;;;;;;;8.75;8.75;;;;;6.26;73.81;99805.56;5033066;28;11528;-78
2021/12/20 09:48:47;;;;;;;;;19.25;16.75;;;;;6.46;73.24;99812.34;5032816;28;11629;-77
2021/12/20 09:51:43;;;;;;;;;10.25;10.25;;;;;6.77;73.04;99811.34;5044466;28;11525;-77
2021/12/20 09:54:39;;;;;;;;;10.00;9.75;;;;;6.81;71.08;99809.53;5032778;28;11520;-76
2021/12/20 09:57:36;;;;;;;;;10.50;10.50;;;;;6.89;69.79;99815.00;5035472;28;11488;-77
2021/12/20 10:00:34;;;;;;;;;9.25;9.25;;;;;6.87;70.96;99806.28;5032566;28;11477;-77
2021/12/20 10:03:30;;;;;;;;;9.00;9.00;;;;;6.88;70.04;99816.16;5043556;28;11456;-76
2021/12/20 10:06:26;;;;;;;;;9.00;8.50;;;;;7.01;69.70;99814.34;5031959;28;11485;-77
2021/12/20 10:09:29;;;;;;;;;16.50;16.50;;;;;6.88;69.38;99813.41;5037916;28;11576;-77
2021/12/20 10:12:27;;;;;;;;;16.25;16.25;;;;;6.78;70.48;99816.50;5027133;28;12258;-77
2021/12/20 10:15:32;;;;;;;;;16.00;14.00;;;;;7.02;69.33;99815.16;5024125;28;11559;-77
2021/12/20 10:18:33;;;;;;;;;14.75;14.00;;;;;7.45;68.90;99818.53;5007429;28;11502;-78
2021/12/20 10:21:39;;;;;;;;;10.25;10.25;;;;;8.05;67.95;99814.63;5033648;28;11479;-77
2021/12/20 10:24:36;;;;;;;;;5.00;5.00;;;;;8.40;65.84;99830.91;5019743;28;11583;-78
2021/12/20 10:27:35;;;;;;;;;5.25;5.25;;;;;8.94;65.61;99821.81;5033235;28;11445;-77
2021/12/20 10:30:34;;;;;;;;;15.00;15.00;;;;;8.51;64.63;99828.53;5005540;28;11065;-77
2021/12/20 10:33:30;;;;;;;;;5.00;5.00;;;;;8.71;63.72;99830.47;5031722;28;12204;-78
2021/12/20 10:36:26;;;;;;;;;2.00;2.00;;;;;8.40;62.88;99828.16;5032648;28;11067;-78
2021/12/20 10:40:00;;;;;;;;;2.00;2.00;;;;;8.18;61.74;99833.97;5023379;28;10833;-78
2021/12/20 10:42:58;;;;;;;;;6.00;6.00;;;;;7.97;62.75;99826.47;5020605;28;11813;-77
2021/12/20 10:45:55;;;;;;;;;5.50;5.50;;;;;8.08;64.00;99830.47;5030660;28;11915;-77
2021/12/20 10:49:03;;;;;;;;;3.00;3.00;;;;;8.07;62.60;99837.13;5034177;28;11103;-77
2021/12/20 10:51:59;;;;;;;;;5.00;5.00;;;;;8.13;63.54;99836.91;5010626;28;11004;-77
2021/12/20 10:54:55;;;;;;;;;1.25;1.25;;;;;7.89;64.39;99843.88;5043367;28;11236;-77
2021/12/20 10:57:51;;;;;;;;;1.25;1.25;;;;;7.62;62.70;99847.09;5030343;28;10989;-76
2021/12/20 11:01:15;;;;;;;;;3.50;3.50;;;;;7.19;62.72;99846.13;5018485;28;11213;-77
2021/12/20 11:04:22;;;;;;;;;20.25;19.50;;;;;7.43;62.38;99850.25;5031033;28;12135;-77
2021/12/20 11:10:17;;;;;;;;;3.50;3.50;;;;;8.06;64.27;99834.72;5030918;28;11516;-77
2021/12/20 11:13:16;;;;;;;;;3.00;3.00;;;;;7.84;61.09;99844.06;5031593;28;11234;-77
2021/12/20 11:16:33;;;;;;;;;3.00;3.00;;;;;7.77;61.69;99841.03;5032878;28;11168;-77
2021/12/20 11:19:33;;;;;;;;;4.00;4.00;;;;;7.80;62.20;99843.13;5031074;28;11290;-77
2021/12/20 11:22:31;;;;;;;;;6.75;6.75;;;;;7.81;62.04;99850.22;5018026;28;11157;-77
2021/12/20 11:25:27;;;;;;;;;4.50;4.50;;;;;7.69;61.60;99847.41;5043138;28;12314;-78
2021/12/20 11:28:22;;;;;;;;;2.75;2.75;;;;;7.55;62.93;99855.06;5036830;28;11481;-78
2021/12/20 11:31:19;;;;;;;;;19.75;19.75;;;;;8.07;63.88;99839.06;5033762;28;11409;-79
2021/12/20 11:34:15;;;;;;;;;9.00;9.00;;;;;8.43;62.29;99849.50;5034527;28;11487;-77
2021/12/20 11:37:15;;;;;;;;;7.00;7.00;;;;;8.35;61.91;99842.91;5034588;28;11422;-77
2021/12/20 11:40:14;;;;;;;;;3.00;3.00;;;;;7.44;62.46;99846.41;5034552;28;11586;-77
2021/12/20 11:43:09;;;;;;;;;6.00;6.00;;;;;7.50;61.83;99845.84;5034839;28;11459;-78
2021/12/20 11:46:08;;;;;;;;;6.00;4.50;;;;;7.23;59.32;99854.56;5036398;28;11234;-78
2021/12/20 11:49:04;;;;;;;;;6.25;6.25;;;;;7.07;61.66;99853.47;5033990;28;11168;-77
2021/12/20 11:52:19;;;;;;;;;3.00;3.00;;;;;7.34;62.52;99855.78;5034802;28;11425;-77
2021/12/20 11:55:23;;;;;;;;;2.75;2.75;;;;;7.46;60.91;99858.66;5027392;28;11408;-78
2021/12/20 11:58:24;;;;;;;;;6.00;6.00;;;;;7.28;61.19;99864.56;5034730;28;11531;-77
2021/12/20 12:01:19;;;;;;;;;3.00;3.00;;;;;7.16;61.17;99862.50;5021390;28;11465;-76
2021/12/20 12:04:15;;;;;;;;;7.00;7.00;;;;;6.78;61.55;99868.72;5019879;28;11456;-77
2021/12/20 12:07:22;;;;;;;;;7.00;7.00;;;;;6.70;62.91;99861.28;5022888;28;11427;-78
2021/12/20 12:10:18;;;;;;;;;4.75;4.75;;;;;6.59;63.16;99865.50;5021427;28;11433;-77
2021/12/20 12:13:18;;;;;;;;;5.50;5.50;;;;;6.50;60.57;99873.75;5020841;28;11481;-77
2021/12/20 12:16:27;;;;;;;;;12.50;12.50;;;;;6.33;61.69;99881.97;5033189;28;11489;-77
2021/12/20 12:19:49;;;;;;;;;6.00;5.25;;;;;6.34;61.52;99887.16;5034908;28;11554;-77
2021/12/20 12:22:46;;;;;;;;;9.00;9.00;;;;;6.33;62.49;99881.97;5035641;28;12209;-77
2021/12/20 12:25:49;;;;;;;;;11.00;10.00;;;;;6.27;62.34;99891.50;5046509;28;12318;-77
2021/12/20 12:28:56;;;;;;;;;15.50;12.50;;;;;6.15;63.32;99883.91;5032974;28;11521;-78
2021/12/20 12:31:54;;;;;;;;;10.00;10.00;;;;;6.09;63.58;99887.94;5001334;28;11549;-77
2021/12/20 12:34:53;;;;;;;;;8.25;8.25;;;;;6.04;63.47;99890.81;5033578;28;11483;-77
2021/12/20 12:38:16;;;;;;;;;6.50;6.50;;;;;5.98;62.97;99894.81;5021812;28;11573;-78
2021/12/20 12:41:26;;;;;;;;;8.50;8.50;;;;;5.92;63.82;99890.66;5013714;28;11556;-76
2021/12/20 12:44:24;;;;;;;;;4.50;4.50;;;;;6.02;65.40;99891.13;5025290;28;11543;-77
2021/12/20 12:47:36;;;;;;;;;5.00;5.00;;;;;6.04;64.20;99893.56;5028798;28;11503;-76
2021/12/20 12:50:32;;;;;;;;;5.75;5.75;;;;;6.09;64.63;99896.16;5033189;28;11527;-77
2021/12/20 12:53:42;;;;;;;;;9.75;9.75;;;;;6.19;65.18;99901.34;5033751;28;11506;-76
2021/12/20 12:56:38;;;;;;;;;9.75;9.75;;;;;6.26;64.53;99906.34;5033217;28;11491;-77
2021/12/20 12:59:36;;;;;;;;;13.00;13.00;;;;;6.29;65.37;99909.28;5032434;28;11526;-77
2021/12/20 13:02:41;;;;;;;;;13.00;13.00;;;;;6.12;66.36;99920.22;5020872;28;11549;-75
2021/12/20 13:05:37;;;;;;;;;13.75;12.00;;;;;5.98;66.70;99909.38;5033087;28;11532;-74
2021/12/20 13:08:33;;;;;;;;;11.00;11.00;;;;;5.56;65.42;99924.53;5034465;28;11519;-73
2021/12/20 13:11:30;;;;;;;;;5.75;5.75;;;;;5.36;65.34;99930.53;5032970;28;11529;-73
2021/12/20 13:14:31;;;;;;;;;6.50;6.50;;;;;5.47;65.51;99934.66;5019642;28;12247;-74
2021/12/20 13:17:32;;;;;;;;;4.00;4.00;;;;;5.39;65.17;99932.69;5043855;28;11544;-73
2021/12/20 13:23:34;;;;;;;;;7.25;5.50;;;;;5.21;64.80;99938.06;5023996;28;11531;-74
2021/12/20 13:26:17;;;;;;;;;5.25;5.25;;;;;5.17;64.20;99942.53;5033709;28;11595;-73
2021/12/20 13:29:16;;;;;;;;;5.25;5.25;;;;;5.20;63.40;99941.91;5032568;28;11583;-73
2021/12/20 13:32:13;;;;;;;;;6.00;6.00;;;;;5.16;62.81;99940.94;5019065;28;11500;-74
2021/12/20 13:35:19;;;;;;;;;6.50;6.50;;;;;5.05;61.99;99947.78;5013082;28;11511;-75
2021/12/20 13:38:30;;;;;;;;;9.25;9.25;;;;;5.23;64.07;99951.47;5012760;28;11531;-74
2021/12/20 13:41:31;;;;;;;;;8.25;7.50;;;;;5.20;64.30;99949.31;5031865;28;12259;-74
2021/12/20 13:44:28;;;;;;;;;29.00;29.00;;;;;5.21;64.43;99945.47;5031778;28;11526;-74
2021/12/20 13:47:26;;;;;;;;;5.00;5.00;;;;;5.15;64.22;99944.81;5032311;28;11560;-73
2021/12/20 13:50:22;;;;;;;;;5.00;5.00;;;;;5.10;65.35;99947.66;5032100;28;11594;-74
2021/12/20 13:53:27;;;;;;;;;8.00;6.00;;;;;5.10;65.53;99949.59;5033152;28;11590;-74
2021/12/20 13:56:25;;;;;;;;;8.00;8.00;;;;;5.24;65.74;99947.59;5012373;28;11510;-74
2021/12/20 13:59:43;;;;;;;;;7.50;7.50;;;;;5.31;66.27;99958.94;5001198;28;11579;-75
2021/12/20 14:02:42;;;;;;;;;6.50;6.50;;;;;5.34;66.15;99960.22;5037488;28;11499;-76
2021/12/20 14:05:27;;;;;;;;;12.75;12.75;;;;;5.29;67.13;99958.41;5017254;28;11498;-75
2021/12/20 14:08:00;;;;;;;;;9.50;9.50;;;;;5.31;66.71;99964.41;5048479;28;12332;-75
2021/12/20 14:10:55;;;;;;;;;10.50;9.50;;;;;5.29;66.92;99955.66;5031528;28;11559;-75
2021/12/20 14:13:53;;;;;;;;;10.50;10.50;;;;;5.27;67.43;99963.41;5031568;28;12348;-75